createdAt,value
2019-01-04T00:00:21.890Z,1.50
2019-01-04T00:02:51.228Z,1.50
2019-01-04T00:05:18.701Z,1.50
2019-01-04T00:07:46.252Z,1.50
2019-01-04T00:10:14.268Z,1.50
2019-01-04T00:12:41.722Z,1.50
2019-01-04T00:15:09.064Z,1.50
2019-01-04T00:17:36.511Z,1.50
2019-01-04T00:20:04.089Z,1.50
2019-01-04T00:22:31.881Z,1.50
2019-01-04T00:24:59.275Z,1.40
2019-01-04T00:27:27.053Z,1.50
2019-01-04T00:29:54.781Z,1.50
2019-01-04T00:32:22.358Z,1.50
2019-01-04T00:34:49.810Z,1.50
2019-01-04T00:37:17.203Z,1.50
2019-01-04T00:39:44.595Z,1.50
2019-01-04T00:42:11.914Z,1.50
2019-01-04T00:44:39.436Z,1.50
2019-01-04T00:47:06.937Z,1.50
2019-01-04T00:49:34.196Z,1.50
2019-01-04T00:52:01.973Z,1.50
2019-01-04T00:54:29.811Z,1.50
2019-01-04T00:57:16.668Z,1.50
2019-01-04T01:00:40.864Z,1.50
2019-01-04T01:03:33.152Z,1.50
2019-01-04T01:06:38.588Z,1.50
2019-01-04T01:09:32.203Z,1.50
2019-01-04T01:12:41.723Z,1.50
2019-01-04T01:15:59.929Z,1.50
2019-01-04T01:19:14.484Z,1.50
2019-01-04T01:22:18.067Z,1.40
2019-01-04T01:25:45.569Z,1.50
2019-01-04T01:28:52.383Z,1.50
2019-01-04T01:31:54.447Z,1.40
2019-01-04T01:35:01.372Z,1.40
2019-01-04T01:38:05.583Z,1.50
2019-01-04T01:41:16.486Z,1.40
2019-01-04T01:44:19.983Z,1.50
2019-01-04T01:46:58.776Z,1.40
2019-01-04T01:50:02.687Z,1.40
2019-01-04T01:52:37.195Z,1.50
2019-01-04T01:55:04.976Z,1.40
2019-01-04T01:57:32.702Z,1.40
2019-01-04T02:00:00.089Z,1.50
2019-01-04T02:02:27.570Z,1.40
2019-01-04T02:04:55.166Z,1.50
2019-01-04T02:07:22.739Z,1.50
2019-01-04T02:09:50.259Z,1.40
2019-01-04T02:12:17.669Z,1.50
2019-01-04T02:14:45.091Z,1.40
2019-01-04T02:17:12.833Z,1.40
2019-01-04T02:19:40.351Z,1.40
2019-01-04T02:22:07.720Z,1.40
2019-01-04T02:24:35.138Z,1.40
2019-01-04T02:27:02.545Z,1.40
2019-01-04T02:29:30.138Z,1.40
2019-01-04T02:31:57.700Z,1.30
2019-01-04T02:34:25.471Z,1.30
2019-01-04T02:36:52.957Z,1.30
2019-01-04T02:39:20.399Z,1.30
2019-01-04T02:41:48.102Z,1.30
2019-01-04T02:44:15.848Z,1.30
2019-01-04T02:46:43.229Z,1.40
2019-01-04T02:49:11.037Z,1.40
2019-01-04T02:51:38.425Z,1.40
2019-01-04T02:54:06.517Z,1.40
2019-01-04T02:56:33.911Z,1.30
2019-01-04T02:59:01.410Z,1.30
2019-01-04T03:01:29.095Z,1.30
2019-01-04T03:03:56.464Z,1.30
2019-01-04T03:06:23.887Z,1.30
2019-01-04T03:08:51.707Z,1.30
2019-01-04T03:11:19.138Z,1.30
2019-01-04T03:13:46.838Z,1.20
2019-01-04T03:16:14.285Z,1.20
2019-01-04T03:18:42.047Z,1.20
2019-01-04T03:21:09.435Z,1.20
2019-01-04T03:23:36.713Z,1.20
2019-01-04T03:26:04.194Z,1.20
2019-01-04T03:28:31.635Z,1.10
2019-01-04T03:30:59.736Z,1.10
2019-01-04T03:33:27.254Z,1.10
2019-01-04T03:35:54.793Z,1.10
2019-01-04T03:38:51.133Z,1.10
2019-01-04T03:41:18.567Z,1.10
2019-01-04T03:43:45.979Z,1.10
2019-01-04T03:46:13.655Z,1.10
2019-01-04T03:48:41.054Z,1.10
2019-01-04T03:51:08.389Z,1.10
2019-01-04T03:53:36.407Z,1.00
2019-01-04T03:56:03.834Z,1.10
2019-01-04T03:58:31.244Z,1.00
2019-01-04T04:00:58.697Z,1.00
2019-01-04T04:03:26.255Z,1.00
2019-01-04T04:05:53.770Z,1.00
2019-01-04T04:08:21.169Z,1.00
2019-01-04T04:10:48.471Z,1.00
2019-01-04T04:13:16.034Z,1.00
2019-01-04T04:15:43.595Z,1.00
2019-01-04T04:18:11.470Z,1.00
2019-01-04T04:20:38.846Z,1.00
2019-01-04T04:23:06.253Z,1.10
2019-01-04T04:25:33.826Z,1.00
2019-01-04T04:28:01.403Z,1.10
2019-01-04T04:30:28.831Z,1.00
2019-01-04T04:32:56.209Z,1.00
2019-01-04T04:35:23.647Z,1.00
2019-01-04T04:37:51.069Z,1.00
2019-01-04T04:40:18.456Z,1.00
2019-01-04T04:42:46.006Z,1.00
2019-01-04T04:45:13.305Z,1.00
2019-01-04T04:47:40.697Z,1.00
2019-01-04T04:50:08.169Z,0.90
2019-01-04T04:52:35.666Z,1.00
2019-01-04T04:55:03.143Z,0.90
2019-01-04T04:57:30.577Z,0.90
2019-01-04T04:59:57.965Z,1.00
2019-01-04T05:02:25.581Z,1.00
2019-01-04T05:04:53.065Z,1.00
2019-01-04T05:07:20.424Z,1.00
2019-01-04T05:09:47.732Z,0.90
2019-01-04T05:12:15.367Z,1.00
2019-01-04T05:14:42.648Z,1.00
2019-01-04T05:17:11.230Z,1.00
2019-01-04T05:19:38.690Z,1.00
2019-01-04T05:22:06.115Z,0.90
2019-01-04T05:24:33.495Z,0.90
2019-01-04T05:27:01.064Z,0.90
2019-01-04T05:29:28.812Z,0.90
2019-01-04T05:31:56.299Z,0.90
2019-01-04T05:34:24.254Z,0.90
2019-01-04T05:36:51.653Z,0.90
2019-01-04T05:39:19.078Z,0.90
2019-01-04T05:41:46.553Z,0.90
2019-01-04T05:44:14.424Z,0.90
2019-01-04T05:46:42.180Z,0.90
2019-01-04T05:49:09.575Z,1.00
2019-01-04T05:51:37.004Z,0.90
2019-01-04T05:54:04.363Z,1.00
2019-01-04T05:56:31.856Z,0.90
2019-01-04T05:58:59.295Z,1.00
2019-01-04T06:01:26.745Z,0.90
2019-01-04T06:03:54.207Z,0.90
2019-01-04T06:06:21.601Z,0.90
2019-01-04T06:08:49.144Z,0.90
2019-01-04T06:11:16.689Z,0.90
2019-01-04T06:13:43.921Z,0.80
2019-01-04T06:16:11.331Z,0.80
2019-01-04T06:18:38.761Z,0.90
2019-01-04T06:21:06.498Z,0.90
2019-01-04T06:23:33.896Z,0.90
2019-01-04T06:26:01.592Z,0.90
2019-01-04T06:28:29.045Z,0.90
2019-01-04T06:30:56.467Z,0.90
2019-01-04T06:33:24.311Z,0.90
2019-01-04T06:35:52.041Z,0.90
2019-01-04T06:38:19.457Z,0.90
2019-01-04T06:40:47.172Z,0.80
2019-01-04T06:43:14.635Z,0.90
2019-01-04T06:45:41.908Z,0.80
2019-01-04T06:48:09.300Z,0.80
2019-01-04T06:50:37.358Z,0.90
2019-01-04T06:53:05.027Z,0.80
2019-01-04T06:55:53.846Z,0.80
2019-01-04T06:58:21.608Z,0.80
2019-01-04T07:00:48.918Z,0.80
2019-01-04T07:03:16.299Z,0.80
2019-01-04T07:05:43.820Z,0.80
2019-01-04T07:08:12.531Z,0.80
2019-01-04T07:10:39.957Z,0.70
2019-01-04T07:13:07.314Z,0.70
2019-01-04T07:15:34.719Z,0.70
2019-01-04T07:18:02.750Z,0.70
2019-01-04T07:20:30.197Z,0.70
2019-01-04T07:22:57.902Z,0.60
2019-01-04T07:25:25.326Z,0.60
2019-01-04T07:27:52.739Z,0.60
2019-01-04T07:30:20.161Z,0.50
2019-01-04T07:32:48.079Z,0.50
2019-01-04T07:35:15.430Z,0.50
2019-01-04T07:37:43.067Z,0.50
2019-01-04T07:40:10.473Z,0.40
2019-01-04T07:42:38.064Z,0.40
2019-01-04T07:45:06.530Z,0.40
2019-01-04T07:47:33.959Z,0.40
2019-01-04T07:50:02.885Z,0.40
2019-01-04T07:52:30.686Z,0.40
2019-01-04T07:54:58.123Z,0.30
2019-01-04T07:57:25.641Z,0.40
2019-01-04T07:59:53.297Z,0.40
2019-01-04T08:02:38.905Z,0.40
2019-01-04T08:05:11.569Z,0.40
2019-01-04T08:07:39.254Z,0.40
2019-01-04T08:10:06.857Z,0.40
2019-01-04T08:12:34.402Z,0.30
2019-01-04T08:15:01.842Z,0.30
2019-01-04T08:17:29.084Z,0.30
2019-01-04T08:19:56.741Z,0.30
2019-01-04T08:22:24.155Z,0.30
2019-01-04T08:24:51.617Z,0.40
2019-01-04T08:27:18.953Z,0.40
2019-01-04T08:29:46.463Z,0.50
2019-01-04T08:32:13.967Z,0.50
2019-01-04T08:34:41.344Z,0.50
2019-01-04T08:37:08.624Z,0.60
2019-01-04T08:39:36.077Z,0.60
2019-01-04T08:42:03.573Z,0.60
2019-01-04T08:44:31.349Z,0.60
2019-01-04T08:46:58.963Z,0.60
2019-01-04T08:49:26.343Z,0.70
2019-01-04T08:51:53.802Z,0.70
2019-01-04T08:54:21.194Z,0.70
2019-01-04T08:56:48.627Z,0.70
2019-01-04T08:59:16.133Z,0.70
2019-01-04T09:01:43.543Z,0.70
2019-01-04T09:04:11.387Z,0.70
2019-01-04T09:06:39.217Z,0.80
2019-01-04T09:09:07.104Z,0.80
2019-01-04T09:11:34.661Z,0.80
2019-01-04T09:14:02.523Z,0.90
2019-01-04T09:16:29.832Z,0.90
2019-01-04T09:18:57.586Z,0.90
2019-01-04T09:21:25.106Z,1.00
2019-01-04T09:23:52.561Z,1.00
2019-01-04T09:26:19.959Z,1.10
2019-01-04T09:28:47.399Z,1.10
2019-01-04T09:31:14.868Z,1.20
2019-01-04T09:33:42.312Z,1.20
2019-01-04T09:36:09.976Z,1.30
2019-01-04T09:38:37.401Z,1.30
2019-01-04T09:41:40.889Z,1.40
2019-01-04T09:44:08.394Z,1.40
2019-01-04T09:46:35.815Z,1.50
2019-01-04T09:49:03.149Z,1.50
2019-01-04T09:51:30.691Z,1.60
2019-01-04T09:53:58.907Z,1.60
2019-01-04T09:56:26.500Z,1.70
2019-01-04T09:58:54.324Z,1.70
2019-01-04T10:01:22.521Z,1.70
2019-01-04T10:03:50.247Z,1.80
2019-01-04T10:06:17.638Z,1.80
2019-01-04T10:08:45.118Z,1.90
2019-01-04T10:11:12.789Z,1.90
2019-01-04T10:13:40.502Z,1.90
2019-01-04T10:16:07.876Z,1.90
2019-01-04T10:18:35.473Z,2.00
2019-01-04T10:21:02.994Z,2.10
2019-01-04T10:23:30.495Z,2.10
2019-01-04T10:25:57.907Z,2.10
2019-01-04T10:28:25.526Z,2.10
2019-01-04T10:30:53.019Z,2.20
2019-01-04T10:33:20.691Z,2.20
2019-01-04T10:35:48.328Z,2.20
2019-01-04T10:38:16.110Z,2.20
2019-01-04T10:40:43.518Z,2.30
2019-01-04T10:43:10.775Z,2.20
2019-01-04T10:45:38.530Z,2.30
2019-01-04T10:48:06.218Z,2.30
2019-01-04T10:50:33.645Z,2.40
2019-01-04T10:53:01.605Z,2.40
2019-01-04T10:55:29.046Z,2.40
2019-01-04T10:57:56.431Z,2.40
2019-01-04T11:00:24.225Z,2.40
2019-01-04T11:02:51.927Z,2.40
2019-01-04T11:05:19.676Z,2.40
2019-01-04T11:07:47.047Z,2.40
2019-01-04T11:10:14.584Z,2.40
2019-01-04T11:12:41.882Z,2.40
2019-01-04T11:15:09.350Z,2.40
2019-01-04T11:17:37.289Z,2.40
2019-01-04T11:20:05.190Z,2.40
2019-01-04T11:22:56.359Z,2.40
2019-01-04T11:26:12.919Z,2.40
2019-01-04T11:29:10.291Z,2.40
2019-01-04T11:32:01.771Z,2.50
2019-01-04T11:35:01.493Z,2.50
2019-01-04T11:37:42.035Z,2.40
2019-01-04T11:40:37.383Z,2.40
2019-01-04T11:43:32.678Z,2.40
2019-01-04T11:46:10.201Z,2.50
2019-01-04T11:48:46.053Z,2.50
2019-01-04T11:52:03.871Z,2.40
2019-01-04T11:54:31.482Z,2.40
2019-01-04T11:56:58.970Z,2.40
2019-01-04T11:59:26.626Z,2.40
2019-01-04T12:01:54.029Z,2.40
2019-01-04T12:04:21.493Z,2.40
2019-01-04T12:06:48.993Z,2.40
2019-01-04T12:09:16.396Z,2.40
2019-01-04T12:11:45.660Z,2.40
2019-01-04T12:14:13.102Z,2.40
2019-01-04T12:16:40.652Z,2.50
2019-01-04T12:19:08.447Z,2.50
2019-01-04T12:21:36.220Z,2.50
2019-01-04T12:24:03.624Z,2.40
2019-01-04T12:26:31.395Z,2.40
2019-01-04T12:28:58.930Z,2.40
2019-01-04T12:31:26.499Z,2.40
2019-01-04T12:33:54.467Z,2.30
2019-01-04T12:36:21.907Z,2.20
2019-01-04T12:38:49.871Z,2.30
2019-01-04T12:41:17.277Z,2.20
2019-01-04T12:43:47.840Z,2.20
2019-01-04T12:46:14.220Z,2.20
2019-01-04T12:48:41.762Z,2.30
2019-01-04T12:51:09.329Z,2.30
2019-01-04T12:53:36.770Z,2.30
2019-01-04T12:56:04.363Z,2.20
2019-01-04T12:58:31.763Z,2.20
2019-01-04T13:00:59.298Z,2.20
2019-01-04T13:03:27.164Z,2.20
2019-01-04T13:05:54.923Z,2.20
2019-01-04T13:08:22.522Z,2.30
2019-01-04T13:10:49.891Z,2.30
2019-01-04T13:13:17.355Z,2.30
2019-01-04T13:15:44.799Z,2.20
2019-01-04T13:18:12.227Z,2.20
2019-01-04T13:20:40.128Z,2.30
2019-01-04T13:23:07.747Z,2.30
2019-01-04T13:25:35.540Z,2.20
2019-01-04T13:28:03.371Z,2.30
2019-01-04T13:30:30.902Z,2.30
2019-01-04T13:32:58.316Z,2.40
2019-01-04T13:35:25.696Z,2.30
2019-01-04T13:37:53.149Z,2.40
2019-01-04T13:40:20.592Z,2.30
2019-01-04T13:42:48.159Z,2.40
2019-01-04T13:45:15.553Z,2.40
2019-01-04T13:47:43.483Z,2.40
2019-01-04T13:50:10.998Z,2.40
2019-01-04T13:52:38.835Z,2.40
2019-01-04T13:55:06.275Z,2.40
2019-01-04T13:57:33.712Z,2.40
2019-01-04T14:00:01.179Z,2.40
2019-01-04T14:02:28.635Z,2.40
2019-01-04T14:04:55.955Z,2.40
2019-01-04T14:07:23.688Z,2.40
2019-01-04T14:09:51.105Z,2.40
2019-01-04T14:12:19.587Z,2.40
2019-01-04T14:14:47.048Z,2.40
2019-01-04T14:17:14.441Z,2.40
2019-01-04T14:19:41.945Z,2.40
2019-01-04T14:22:09.349Z,2.40
2019-01-04T14:24:37.619Z,2.40
2019-01-04T14:27:05.010Z,2.40
2019-01-04T14:29:32.437Z,2.40
2019-01-04T14:32:00.130Z,2.50
2019-01-04T14:34:27.525Z,2.40
2019-01-04T14:36:55.168Z,2.40
2019-01-04T14:39:22.796Z,2.50
2019-01-04T14:41:50.192Z,2.40
2019-01-04T14:47:46.658Z,2.40
2019-01-04T14:50:14.427Z,2.40
2019-01-04T14:52:42.452Z,2.40
2019-01-04T14:55:09.898Z,2.40
2019-01-04T14:57:37.383Z,2.30
2019-01-04T15:00:07.628Z,2.30
2019-01-04T15:02:35.209Z,2.30
2019-01-04T15:05:03.026Z,2.30
2019-01-04T15:07:30.328Z,2.30
2019-01-04T15:09:58.275Z,2.30
2019-01-04T15:12:25.735Z,2.30
2019-01-04T15:14:53.180Z,2.30
2019-01-04T15:17:20.783Z,2.30
2019-01-04T15:19:48.195Z,2.30
2019-01-04T15:22:15.893Z,2.20
2019-01-04T15:24:43.788Z,2.20
2019-01-04T15:27:11.389Z,2.20
2019-01-04T15:29:38.819Z,2.20
2019-01-04T15:32:06.267Z,2.20
2019-01-04T15:34:33.701Z,2.10
2019-01-04T15:37:01.264Z,2.10
2019-01-04T15:39:28.719Z,2.10
2019-01-04T15:41:56.155Z,2.10
2019-01-04T15:44:23.580Z,2.00
2019-01-04T15:46:51.400Z,2.00
2019-01-04T15:49:19.251Z,1.90
2019-01-04T15:51:47.148Z,1.90
2019-01-04T15:54:14.585Z,2.00
2019-01-04T15:56:42.064Z,1.90
2019-01-04T15:59:09.505Z,1.90
2019-01-04T16:01:36.816Z,1.90
2019-01-04T16:04:04.570Z,1.90
2019-01-04T16:06:32.125Z,1.90
2019-01-04T16:08:59.529Z,1.90
2019-01-04T16:11:27.065Z,1.80
2019-01-04T16:13:54.476Z,1.80
2019-01-04T16:16:22.109Z,1.80
2019-01-04T16:18:49.549Z,1.80
2019-01-04T16:21:16.964Z,1.70
2019-01-04T16:23:44.509Z,1.80
2019-01-04T16:26:12.099Z,1.70
2019-01-04T16:28:39.677Z,1.70
2019-01-04T16:31:07.187Z,1.70
2019-01-04T16:33:34.692Z,1.70
2019-01-04T16:36:02.218Z,1.70
2019-01-04T16:38:29.751Z,1.70
2019-01-04T16:40:57.209Z,1.60
2019-01-04T16:43:24.622Z,1.60
2019-01-04T16:45:53.186Z,1.60
2019-01-04T16:48:20.563Z,1.60
2019-01-04T16:50:47.922Z,1.60
2019-01-04T16:53:15.366Z,1.60
2019-01-04T16:55:43.088Z,1.60
2019-01-04T16:58:11.181Z,1.60
2019-01-04T17:00:38.675Z,1.60
2019-01-04T17:03:06.107Z,1.60
2019-01-04T17:05:33.506Z,1.60
2019-01-04T17:08:00.952Z,1.60
2019-01-04T17:10:28.466Z,1.60
2019-01-04T17:12:57.234Z,1.60
2019-01-04T17:15:24.771Z,1.60
2019-01-04T17:17:52.191Z,1.60
2019-01-04T17:20:19.536Z,1.60
2019-01-04T17:22:46.919Z,1.60
2019-01-04T17:25:14.469Z,1.60
2019-01-04T17:27:41.878Z,1.60
2019-01-04T17:30:09.280Z,1.70
2019-01-04T17:32:36.781Z,1.60
2019-01-04T17:35:04.481Z,1.60
2019-01-04T17:37:31.910Z,1.70
2019-01-04T17:39:59.884Z,1.70
2019-01-04T17:42:27.682Z,1.70
2019-01-04T17:44:55.123Z,1.70
2019-01-04T17:47:22.539Z,1.70
2019-01-04T17:49:49.905Z,1.70
2019-01-04T17:52:17.897Z,1.70
2019-01-04T17:54:45.301Z,1.80
2019-01-04T17:57:12.703Z,1.70
2019-01-04T17:59:40.354Z,1.80
2019-01-04T18:02:08.078Z,1.70
2019-01-04T18:04:35.695Z,1.70
2019-01-04T18:07:03.542Z,1.80
2019-01-04T18:09:31.483Z,1.80
2019-01-04T18:11:59.284Z,1.80
2019-01-04T18:14:26.664Z,1.80
2019-01-04T18:16:54.056Z,1.80
2019-01-04T18:19:21.347Z,1.80
2019-01-04T18:21:48.774Z,1.70
2019-01-04T18:24:17.273Z,1.80
2019-01-04T18:26:44.915Z,1.80
2019-01-04T18:29:13.732Z,1.80
2019-01-04T18:31:41.124Z,1.80
2019-01-04T18:34:08.643Z,1.80
2019-01-04T18:36:36.095Z,1.80
2019-01-04T18:39:05.336Z,1.80
2019-01-04T18:41:33.114Z,1.80
2019-01-04T18:44:00.566Z,1.80
2019-01-04T18:46:28.305Z,1.90
2019-01-04T18:48:55.844Z,1.80
2019-01-04T18:51:23.253Z,1.90
2019-01-04T18:53:50.666Z,1.90
2019-01-04T18:56:18.167Z,1.90
2019-01-04T18:58:45.603Z,1.90
2019-01-04T19:01:13.802Z,1.80
2019-01-04T19:03:41.319Z,1.80
2019-01-04T19:06:08.772Z,1.80
2019-01-04T19:08:36.194Z,1.80
2019-01-04T19:11:03.717Z,1.80
2019-01-04T19:13:32.624Z,1.80
2019-01-04T19:16:00.533Z,1.80
2019-01-04T19:18:27.978Z,1.80
2019-01-04T19:20:55.424Z,1.80
2019-01-04T19:23:22.943Z,1.80
2019-01-04T19:25:50.772Z,1.80
2019-01-04T19:28:18.164Z,1.80
2019-01-04T19:30:46.212Z,1.80
2019-01-04T19:33:13.716Z,1.80
2019-01-04T19:35:41.200Z,1.80
2019-01-04T19:38:08.904Z,1.80
2019-01-04T19:40:36.450Z,1.80
2019-01-04T19:43:03.979Z,1.90
2019-01-04T19:45:31.444Z,1.80
2019-01-04T19:47:58.825Z,1.80
2019-01-04T19:50:26.329Z,1.80
2019-01-04T19:52:53.809Z,1.80
2019-01-04T19:55:21.249Z,1.80
2019-01-04T19:57:49.158Z,1.80
2019-01-04T20:00:16.464Z,1.90
2019-01-04T20:02:44.315Z,1.90
2019-01-04T20:05:29.379Z,1.80
2019-01-04T20:09:04.418Z,1.90
2019-01-04T20:12:50.183Z,1.80
2019-01-04T20:15:51.148Z,1.80
2019-01-04T20:18:49.593Z,1.90
2019-01-04T20:21:28.412Z,1.90
2019-01-04T20:24:18.219Z,1.90
2019-01-04T20:27:05.733Z,1.90
2019-01-04T20:30:04.447Z,1.90
2019-01-04T20:33:05.851Z,1.90
2019-01-04T20:35:55.206Z,1.90
2019-01-04T20:38:42.165Z,1.90
2019-01-04T20:41:21.974Z,1.90
2019-01-04T20:44:12.118Z,1.90
2019-01-04T20:46:57.632Z,1.90
2019-01-04T20:49:53.103Z,1.90
2019-01-04T20:52:39.042Z,1.90
2019-01-04T20:55:25.028Z,1.90
2019-01-04T20:58:14.836Z,1.90
2019-01-04T21:01:06.845Z,2.00
2019-01-04T21:03:56.564Z,2.00
2019-01-04T21:07:00.170Z,1.90
2019-01-04T21:09:56.238Z,2.00
2019-01-04T21:12:41.763Z,2.00
2019-01-04T21:15:40.888Z,1.90
2019-01-04T21:18:36.952Z,1.90
2019-01-04T21:21:23.859Z,1.90
2019-01-04T21:24:10.071Z,1.90
2019-01-04T21:26:59.997Z,1.90
2019-01-04T21:29:58.567Z,1.90
2019-01-04T21:32:44.257Z,1.90
2019-01-04T21:35:41.558Z,1.90
2019-01-04T21:38:40.673Z,1.90
2019-01-04T21:41:26.825Z,1.90
2019-01-04T21:44:08.264Z,1.90
2019-01-04T21:46:55.381Z,1.90
2019-01-04T21:49:51.630Z,1.90
2019-01-04T21:52:38.645Z,1.80
2019-01-04T21:55:25.122Z,1.80
2019-01-04T21:58:20.953Z,1.80
2019-01-04T22:01:23.410Z,1.80
2019-01-04T22:04:16.272Z,1.90
2019-01-04T22:07:01.448Z,1.90
2019-01-04T22:09:46.822Z,1.80
2019-01-04T22:12:32.039Z,1.90
2019-01-04T22:15:22.172Z,1.80
2019-01-04T22:18:09.422Z,1.90
2019-01-04T22:20:56.833Z,1.90
2019-01-04T22:23:55.501Z,1.90
2019-01-04T22:27:00.670Z,1.90
2019-01-04T22:29:56.483Z,1.90
2019-01-04T22:32:46.200Z,1.90
2019-01-04T22:35:24.683Z,1.90
2019-01-04T22:38:14.868Z,1.90
2019-01-04T22:41:00.333Z,1.90
2019-01-04T22:43:55.842Z,1.90
2019-01-04T22:46:35.487Z,1.90
2019-01-04T22:49:31.368Z,1.90
2019-01-04T22:52:33.630Z,1.90
2019-01-04T22:55:29.586Z,2.00
2019-01-04T22:58:16.524Z,2.00
2019-01-04T23:01:03.105Z,1.90
2019-01-04T23:03:53.137Z,1.90
2019-01-04T23:06:38.593Z,1.90
2019-01-04T23:09:35.596Z,1.90
2019-01-04T23:12:38.264Z,1.90
2019-01-04T23:15:27.856Z,2.00
2019-01-04T23:18:25.336Z,2.00
2019-01-04T23:21:10.258Z,1.90
2019-01-04T23:23:55.916Z,1.90
2019-01-04T23:26:50.759Z,1.90
2019-01-04T23:29:35.788Z,1.90
2019-01-04T23:32:16.870Z,2.00
2019-01-04T23:35:02.996Z,2.00
2019-01-04T23:37:46.454Z,2.00
2019-01-04T23:40:32.041Z,2.00
2019-01-04T23:43:31.357Z,1.90
2019-01-04T23:46:12.038Z,1.90
2019-01-04T23:49:05.998Z,2.00
2019-01-04T23:51:52.292Z,1.90
2019-01-04T23:54:31.087Z,2.00
2019-01-04T23:57:16.780Z,1.90
